createdAt,value
2022-09-06T00:00:28.413Z,96.80
2022-09-06T00:02:55.433Z,96.89
2022-09-06T00:05:25.793Z,96.77
2022-09-06T00:07:52.450Z,96.87
2022-09-06T00:10:24.711Z,96.64
2022-09-06T00:12:51.265Z,97.03
2022-09-06T00:15:24.459Z,96.11
2022-09-06T00:17:51.709Z,96.02
2022-09-06T00:20:18.296Z,96.59
2022-09-06T00:22:46.517Z,96.36
2022-09-06T00:25:13.068Z,96.97
2022-09-06T00:27:44.021Z,97.23
2022-09-06T00:30:11.285Z,97.18
2022-09-06T00:32:37.809Z,97.44
2022-09-06T00:35:05.658Z,97.02
2022-09-06T00:37:38.313Z,97.11
2022-09-06T00:40:05.298Z,96.27
2022-09-06T00:42:31.837Z,96.59
2022-09-06T00:44:59.129Z,96.38
2022-09-06T00:47:27.351Z,96.43
2022-09-06T00:49:57.184Z,96.61
2022-09-06T00:52:27.228Z,96.70
2022-09-06T00:54:54.578Z,96.19
2022-09-06T00:57:21.448Z,96.81
2022-09-06T00:59:50.493Z,96.78
2022-09-06T01:02:17.116Z,96.74
2022-09-06T01:04:45.744Z,96.77
2022-09-06T01:07:35.802Z,96.88
2022-09-06T01:10:40.742Z,97.04
2022-09-06T01:13:22.769Z,97.00
2022-09-06T01:16:07.567Z,97.10
2022-09-06T01:18:45.631Z,97.34
2022-09-06T01:21:21.452Z,96.37
2022-09-06T01:24:11.451Z,96.51
2022-09-06T01:27:15.190Z,96.88
2022-09-06T01:29:45.726Z,96.36
2022-09-06T01:32:12.249Z,96.66
2022-09-06T01:34:45.522Z,96.15
2022-09-06T01:37:18.173Z,96.46
2022-09-06T01:39:44.784Z,96.87
2022-09-06T01:42:25.900Z,96.57
2022-09-06T01:44:58.428Z,96.73
2022-09-06T01:47:31.343Z,96.84
2022-09-06T01:50:06.721Z,97.25
2022-09-06T01:52:59.396Z,97.55
2022-09-06T01:55:50.638Z,98.48
2022-09-06T01:58:41.904Z,98.16
2022-09-06T02:01:14.335Z,98.37
2022-09-06T02:04:00.559Z,98.60
2022-09-06T02:06:29.644Z,100.00
2022-09-06T02:09:06.803Z,99.69
2022-09-06T02:11:42.114Z,99.66
2022-09-06T02:14:18.570Z,100.00
2022-09-06T02:16:48.525Z,100.00
2022-09-06T02:19:41.407Z,99.95
2022-09-06T02:22:12.847Z,99.78
2022-09-06T02:24:42.671Z,99.10
2022-09-06T02:27:12.095Z,99.35
2022-09-06T02:29:41.398Z,99.86
2022-09-06T02:32:17.180Z,100.00
2022-09-06T02:34:46.310Z,100.00
2022-09-06T02:37:16.960Z,100.00
2022-09-06T02:39:52.110Z,100.00
2022-09-06T02:42:18.962Z,100.00
2022-09-06T02:44:45.569Z,100.00
2022-09-06T02:47:12.386Z,100.00
2022-09-06T02:49:39.253Z,99.94
2022-09-06T02:52:08.072Z,100.00
2022-09-06T02:54:34.865Z,100.00
2022-09-06T02:57:01.506Z,100.00
2022-09-06T02:59:28.036Z,100.00
2022-09-06T03:01:54.849Z,100.00
2022-09-06T03:04:21.699Z,100.00
2022-09-06T03:06:48.264Z,100.00
2022-09-06T03:09:14.984Z,100.00
2022-09-06T03:11:41.515Z,100.00
2022-09-06T03:14:08.028Z,100.00
2022-09-06T03:16:36.698Z,100.00
2022-09-06T03:19:03.308Z,100.00
2022-09-06T03:21:32.419Z,100.00
2022-09-06T03:24:01.162Z,100.00
2022-09-06T03:26:32.857Z,100.00
2022-09-06T03:28:59.391Z,100.00
2022-09-06T03:31:25.957Z,100.00
2022-09-06T03:33:56.971Z,100.00
2022-09-06T03:36:23.561Z,100.00
2022-09-06T03:38:51.258Z,100.00
2022-09-06T03:41:19.520Z,100.00
2022-09-06T03:43:46.139Z,100.00
2022-09-06T03:46:12.784Z,100.00
2022-09-06T03:48:43.903Z,100.00
2022-09-06T03:51:10.475Z,100.00
2022-09-06T03:53:37.040Z,100.00
2022-09-06T03:56:03.796Z,100.00
2022-09-06T03:58:31.893Z,100.00
2022-09-06T04:01:07.847Z,100.00
2022-09-06T04:03:35.307Z,100.00
2022-09-06T04:06:02.324Z,100.00
2022-09-06T04:08:29.532Z,100.00
2022-09-06T04:10:57.518Z,100.00
2022-09-06T04:13:25.301Z,100.00
2022-09-06T04:16:03.425Z,100.00
2022-09-06T04:18:31.709Z,100.00
2022-09-06T04:20:58.776Z,100.00
2022-09-06T04:23:29.785Z,100.00
2022-09-06T04:25:59.130Z,100.00
2022-09-06T04:28:27.046Z,100.00
2022-09-06T04:31:02.143Z,100.00
2022-09-06T04:33:31.842Z,100.00
2022-09-06T04:36:09.852Z,100.00
2022-09-06T04:38:42.119Z,100.00
2022-09-06T04:41:10.934Z,100.00
2022-09-06T04:43:37.889Z,100.00
2022-09-06T04:46:17.825Z,100.00
2022-09-06T04:48:46.299Z,100.00
2022-09-06T04:51:17.244Z,100.00
2022-09-06T04:53:44.273Z,100.00
2022-09-06T04:56:17.651Z,100.00
2022-09-06T04:58:45.717Z,100.00
2022-09-06T05:01:12.719Z,100.00
2022-09-06T05:03:41.184Z,100.00
2022-09-06T05:06:20.906Z,100.00
2022-09-06T05:08:48.367Z,100.00
2022-09-06T05:11:17.099Z,100.00
2022-09-06T05:13:45.735Z,100.00
2022-09-06T05:16:18.505Z,100.00
2022-09-06T05:18:45.113Z,100.00
2022-09-06T05:21:11.670Z,100.00
2022-09-06T05:23:40.256Z,100.00
2022-09-06T05:26:06.808Z,100.00
2022-09-06T05:28:35.753Z,100.00
2022-09-06T05:31:08.729Z,100.00
2022-09-06T05:33:35.526Z,100.00
2022-09-06T05:36:06.095Z,96.85
2022-09-06T05:38:32.901Z,95.08
2022-09-06T05:40:59.646Z,94.09
2022-09-06T05:43:26.192Z,93.12
2022-09-06T05:45:58.288Z,92.45
2022-09-06T05:48:24.887Z,92.03
2022-09-06T05:51:06.731Z,89.80
2022-09-06T05:53:34.876Z,88.40
2022-09-06T05:56:01.549Z,88.98
2022-09-06T05:58:34.567Z,91.07
2022-09-06T06:01:18.934Z,89.95
2022-09-06T06:03:57.257Z,89.83
2022-09-06T06:06:26.261Z,88.52
2022-09-06T06:08:52.844Z,89.57
2022-09-06T06:11:21.337Z,90.85
2022-09-06T06:13:47.869Z,92.02
2022-09-06T06:16:16.874Z,93.42
2022-09-06T06:18:47.681Z,93.81
2022-09-06T06:21:22.012Z,94.99
2022-09-06T06:23:58.527Z,96.03
2022-09-06T06:26:28.256Z,97.14
2022-09-06T06:28:55.617Z,97.11
2022-09-06T06:31:22.888Z,96.52
2022-09-06T06:33:50.337Z,96.93
2022-09-06T06:36:17.049Z,97.74
2022-09-06T06:38:45.105Z,98.29
2022-09-06T06:41:14.259Z,98.97
2022-09-06T06:43:40.961Z,100.00
2022-09-06T06:46:15.864Z,100.00
2022-09-06T06:48:43.801Z,100.00
2022-09-06T06:51:12.984Z,100.00
2022-09-06T06:53:41.345Z,100.00
2022-09-06T06:56:24.375Z,100.00
2022-09-06T06:58:53.872Z,100.00
2022-09-06T07:01:22.119Z,100.00
2022-09-06T07:03:49.224Z,100.00
2022-09-06T07:06:17.301Z,100.00
2022-09-06T07:08:44.459Z,100.00
2022-09-06T07:11:13.202Z,100.00
2022-09-06T07:13:44.369Z,99.72
2022-09-06T07:16:20.086Z,99.03
2022-09-06T07:18:48.558Z,99.44
2022-09-06T07:24:10.084Z,95.26
2022-09-06T07:26:40.130Z,94.72
2022-09-06T07:29:15.175Z,94.67
2022-09-06T07:34:35.563Z,96.41
2022-09-06T07:37:02.099Z,97.04
2022-09-06T07:39:28.630Z,98.09
2022-09-06T07:41:55.453Z,100.00
2022-09-06T07:44:22.033Z,100.00
2022-09-06T07:46:48.713Z,100.00
2022-09-06T07:49:17.540Z,100.00
2022-09-06T07:51:44.454Z,100.00
2022-09-06T07:54:30.012Z,100.00
2022-09-06T07:56:59.227Z,100.00
2022-09-06T07:59:25.749Z,100.00
2022-09-06T08:01:53.322Z,100.00
2022-09-06T08:04:20.192Z,100.00
2022-09-06T08:09:36.011Z,100.00
2022-09-06T08:12:07.384Z,100.00
2022-09-06T08:14:34.973Z,100.00
2022-09-06T08:17:02.661Z,100.00
2022-09-06T08:19:29.214Z,100.00
2022-09-06T08:21:56.153Z,100.00
2022-09-06T08:24:29.025Z,100.00
2022-09-06T08:26:55.916Z,100.00
2022-09-06T08:29:22.454Z,100.00
2022-09-06T08:31:49.438Z,100.00
2022-09-06T08:34:16.080Z,100.00
2022-09-06T08:36:43.350Z,100.00
2022-09-06T08:39:14.784Z,100.00
2022-09-06T08:41:58.095Z,100.00
2022-09-06T08:44:58.437Z,100.00
2022-09-06T08:47:25.592Z,100.00
2022-09-06T08:49:56.812Z,99.59
2022-09-06T08:52:26.041Z,95.61
2022-09-06T08:55:02.124Z,94.73
2022-09-06T08:57:46.055Z,94.03
2022-09-06T09:00:15.771Z,89.58
2022-09-06T09:02:51.791Z,83.42
2022-09-06T09:05:31.894Z,80.89
2022-09-06T09:08:18.479Z,81.21
2022-09-06T09:10:54.417Z,76.98
2022-09-06T09:13:34.482Z,72.57
2022-09-06T09:16:01.572Z,71.62
2022-09-06T09:18:38.644Z,72.96
2022-09-06T09:21:06.130Z,75.68
2022-09-06T09:23:35.061Z,77.88
2022-09-06T09:26:16.922Z,77.59
2022-09-06T09:29:11.310Z,78.07
2022-09-06T09:31:53.622Z,76.51
2022-09-06T09:34:33.950Z,76.78
2022-09-06T09:40:26.054Z,73.20
2022-09-06T09:42:56.776Z,69.27
2022-09-06T09:45:29.702Z,69.26
2022-09-06T09:47:56.851Z,68.17
2022-09-06T09:50:34.184Z,70.07
2022-09-06T09:53:11.674Z,69.21
2022-09-06T09:55:39.245Z,65.83
2022-09-06T09:58:08.668Z,66.15
2022-09-06T10:00:39.979Z,62.27
2022-09-06T10:03:20.822Z,66.48
2022-09-06T10:06:03.767Z,63.68
2022-09-06T10:08:35.299Z,63.91
2022-09-06T10:11:02.181Z,65.20
2022-09-06T10:13:30.414Z,64.03
2022-09-06T10:16:00.816Z,65.75
2022-09-06T10:18:37.568Z,63.96
2022-09-06T10:21:20.738Z,63.11
2022-09-06T10:26:55.453Z,62.19
2022-09-06T10:29:53.175Z,63.95
2022-09-06T10:33:01.686Z,66.07
2022-09-06T10:35:32.237Z,70.62
2022-09-06T10:38:01.795Z,72.43
2022-09-06T10:40:50.522Z,71.50
2022-09-06T10:43:20.465Z,73.21
2022-09-06T10:45:58.280Z,75.08
2022-09-06T10:48:35.117Z,75.79
2022-09-06T10:51:27.567Z,76.86
2022-09-06T10:54:01.876Z,77.86
2022-09-06T10:56:50.143Z,78.32
2022-09-06T11:02:14.734Z,79.75
2022-09-06T11:07:31.991Z,80.42
2022-09-06T11:10:07.899Z,81.06
2022-09-06T11:12:44.635Z,81.30
2022-09-06T11:15:14.929Z,81.35
2022-09-06T11:17:50.546Z,82.06
2022-09-06T11:20:31.808Z,83.28
2022-09-06T11:23:14.869Z,83.51
2022-09-06T11:26:05.906Z,84.08
2022-09-06T11:28:52.359Z,84.74
2022-09-06T11:34:32.235Z,87.10
2022-09-06T11:37:01.086Z,88.21
2022-09-06T11:43:01.463Z,93.61
2022-09-06T11:45:52.634Z,95.78
2022-09-06T11:48:34.196Z,96.52
2022-09-06T11:51:06.704Z,99.32
2022-09-06T11:53:50.504Z,100.00
2022-09-06T11:56:28.394Z,100.00
2022-09-06T11:59:06.274Z,100.00
2022-09-06T12:01:36.204Z,100.00
2022-09-06T12:04:07.593Z,100.00
2022-09-06T12:06:44.127Z,100.00
2022-09-06T12:09:31.611Z,100.00
2022-09-06T12:12:01.274Z,100.00
2022-09-06T12:14:33.030Z,100.00
2022-09-06T12:16:59.525Z,100.00
2022-09-06T12:19:52.376Z,100.00
2022-09-06T12:22:29.403Z,100.00
2022-09-06T12:25:50.279Z,100.00
2022-09-06T12:28:27.447Z,100.00
2022-09-06T12:30:54.307Z,100.00
2022-09-06T12:33:28.607Z,100.00
2022-09-06T12:36:14.118Z,100.00
2022-09-06T12:38:53.434Z,100.00
2022-09-06T12:41:25.643Z,100.00
2022-09-06T12:43:52.720Z,100.00
2022-09-06T12:46:19.519Z,100.00
2022-09-06T12:49:07.903Z,100.00
2022-09-06T12:51:36.666Z,100.00
2022-09-06T12:54:06.855Z,100.00
2022-09-06T12:56:34.545Z,100.00
2022-09-06T12:59:22.063Z,100.00
2022-09-06T13:02:07.572Z,100.00
2022-09-06T13:04:54.243Z,100.00
2022-09-06T13:07:24.154Z,100.00
2022-09-06T13:09:55.239Z,100.00
2022-09-06T13:12:33.544Z,100.00
2022-09-06T13:15:17.223Z,100.00
2022-09-06T13:17:44.106Z,100.00
2022-09-06T13:20:27.509Z,100.00
2022-09-06T13:23:07.184Z,100.00
2022-09-06T13:25:33.762Z,100.00
2022-09-06T13:28:04.292Z,100.00
2022-09-06T13:30:38.052Z,100.00
2022-09-06T13:33:06.910Z,100.00
2022-09-06T13:35:37.244Z,100.00
2022-09-06T13:38:23.591Z,100.00
2022-09-06T13:41:10.940Z,100.00
2022-09-06T13:43:45.291Z,100.00
2022-09-06T13:46:12.123Z,100.00
2022-09-06T13:48:44.624Z,100.00
2022-09-06T13:51:11.870Z,100.00
2022-09-06T13:53:38.553Z,100.00
2022-09-06T13:56:09.047Z,100.00
2022-09-06T13:58:38.304Z,100.00
2022-09-06T14:01:10.031Z,100.00
2022-09-06T14:03:47.035Z,100.00
2022-09-06T14:06:13.530Z,100.00
2022-09-06T14:09:03.335Z,100.00
2022-09-06T14:11:26.847Z,100.00
2022-09-06T14:13:55.404Z,100.00
2022-09-06T14:16:22.023Z,100.00
2022-09-06T14:18:49.145Z,100.00
2022-09-06T14:21:16.609Z,100.00
2022-09-06T14:23:48.284Z,100.00
2022-09-06T14:26:15.608Z,100.00
2022-09-06T14:28:45.907Z,100.00
2022-09-06T14:31:15.616Z,100.00
2022-09-06T14:33:42.823Z,100.00
2022-09-06T14:36:12.992Z,100.00
2022-09-06T14:38:40.831Z,100.00
2022-09-06T14:41:09.036Z,100.00
2022-09-06T14:43:36.572Z,100.00
2022-09-06T14:46:14.350Z,100.00
2022-09-06T14:48:42.991Z,100.00
2022-09-06T14:51:25.660Z,100.00
2022-09-06T14:53:55.242Z,100.00
2022-09-06T14:56:23.029Z,100.00
2022-09-06T14:58:51.416Z,100.00
2022-09-06T15:01:24.954Z,100.00
2022-09-06T15:03:55.477Z,100.00
2022-09-06T15:06:23.551Z,100.00
2022-09-06T15:08:52.131Z,100.00
2022-09-06T15:11:38.845Z,100.00
2022-09-06T15:14:08.986Z,100.00
2022-09-06T15:16:36.230Z,100.00
2022-09-06T15:19:04.641Z,100.00
2022-09-06T15:21:32.426Z,100.00
2022-09-06T15:24:00.426Z,100.00
2022-09-06T15:26:27.183Z,100.00
2022-09-06T15:28:53.825Z,100.00
2022-09-06T15:31:21.092Z,100.00
2022-09-06T15:33:54.683Z,100.00
2022-09-06T15:36:22.009Z,100.00
2022-09-06T15:38:53.961Z,100.00
2022-09-06T15:41:26.622Z,100.00
2022-09-06T15:43:56.745Z,100.00
2022-09-06T15:47:01.524Z,100.00
2022-09-06T15:49:32.180Z,100.00
2022-09-06T15:52:01.546Z,100.00
2022-09-06T15:55:01.461Z,100.00
2022-09-06T15:57:28.912Z,100.00
2022-09-06T15:59:55.710Z,100.00
2022-09-06T16:02:24.561Z,100.00
2022-09-06T16:04:51.307Z,100.00
2022-09-06T16:07:18.153Z,100.00
2022-09-06T16:09:45.532Z,100.00
2022-09-06T16:12:12.333Z,100.00
2022-09-06T16:14:38.997Z,100.00
2022-09-06T16:17:07.528Z,100.00
2022-09-06T16:19:34.181Z,100.00
2022-09-06T16:22:01.160Z,100.00
2022-09-06T16:24:28.465Z,100.00
2022-09-06T16:26:55.168Z,100.00
2022-09-06T16:29:21.761Z,100.00
2022-09-06T16:31:56.929Z,100.00
2022-09-06T16:34:23.555Z,100.00
2022-09-06T16:36:50.210Z,100.00
2022-09-06T16:39:16.931Z,100.00
2022-09-06T16:41:45.789Z,100.00
2022-09-06T16:44:17.175Z,100.00
2022-09-06T16:46:48.100Z,100.00
2022-09-06T16:49:17.217Z,100.00
2022-09-06T16:51:44.239Z,100.00
2022-09-06T16:54:15.834Z,100.00
2022-09-06T16:56:43.153Z,100.00
2022-09-06T16:59:10.970Z,100.00
2022-09-06T17:01:41.778Z,100.00
2022-09-06T17:04:09.641Z,100.00
2022-09-06T17:06:45.930Z,100.00
2022-09-06T17:09:15.532Z,100.00
2022-09-06T17:11:42.781Z,100.00
2022-09-06T17:14:09.598Z,100.00
2022-09-06T17:16:54.764Z,100.00
2022-09-06T17:19:23.673Z,100.00
2022-09-06T17:21:50.787Z,100.00
2022-09-06T17:24:17.411Z,100.00
2022-09-06T17:26:43.947Z,100.00
2022-09-06T17:29:10.942Z,100.00
2022-09-06T17:31:38.214Z,100.00
2022-09-06T17:34:05.981Z,100.00
2022-09-06T17:36:33.874Z,100.00
2022-09-06T17:39:13.976Z,100.00
2022-09-06T17:41:45.715Z,100.00
2022-09-06T17:44:23.606Z,100.00
2022-09-06T17:47:11.335Z,100.00
2022-09-06T17:49:39.393Z,100.00
2022-09-06T17:52:05.957Z,100.00
2022-09-06T17:54:32.566Z,100.00
2022-09-06T17:56:59.291Z,100.00
2022-09-06T17:59:25.906Z,100.00
2022-09-06T18:01:52.545Z,100.00
2022-09-06T18:04:19.521Z,100.00
2022-09-06T18:06:48.018Z,100.00
2022-09-06T18:09:17.268Z,100.00
2022-09-06T18:11:48.386Z,100.00
2022-09-06T18:14:18.114Z,100.00
2022-09-06T18:16:49.283Z,100.00
2022-09-06T18:19:19.419Z,100.00
2022-09-06T18:21:46.870Z,100.00
2022-09-06T18:24:16.505Z,100.00
2022-09-06T18:26:45.276Z,100.00
2022-09-06T18:29:14.893Z,100.00
2022-09-06T18:31:41.794Z,100.00
2022-09-06T18:34:09.023Z,100.00
2022-09-06T18:36:38.780Z,100.00
2022-09-06T18:39:06.291Z,100.00
2022-09-06T18:41:54.819Z,100.00
2022-09-06T18:44:22.407Z,100.00
2022-09-06T18:46:50.002Z,100.00
2022-09-06T18:49:19.192Z,100.00
2022-09-06T18:51:46.027Z,100.00
2022-09-06T18:54:13.624Z,100.00
2022-09-06T18:56:42.844Z,100.00
2022-09-06T18:59:10.845Z,100.00
2022-09-06T19:01:37.596Z,100.00
2022-09-06T19:04:05.535Z,100.00
2022-09-06T19:06:35.350Z,100.00
2022-09-06T19:09:06.106Z,100.00
2022-09-06T19:11:33.567Z,100.00
2022-09-06T19:14:00.714Z,100.00
2022-09-06T19:16:29.252Z,100.00
2022-09-06T19:19:01.083Z,100.00
2022-09-06T19:21:27.877Z,100.00
2022-09-06T19:24:04.457Z,100.00
2022-09-06T19:26:34.343Z,100.00
2022-09-06T19:29:03.525Z,100.00
2022-09-06T19:31:37.380Z,100.00
2022-09-06T19:34:04.720Z,100.00
2022-09-06T19:36:33.828Z,100.00
2022-09-06T19:39:07.692Z,100.00
2022-09-06T19:41:38.074Z,100.00
2022-09-06T19:44:05.902Z,100.00
2022-09-06T19:46:35.342Z,100.00
2022-09-06T19:49:02.358Z,100.00
2022-09-06T19:51:29.291Z,100.00
2022-09-06T19:54:00.239Z,100.00
2022-09-06T19:56:33.404Z,100.00
2022-09-06T19:59:12.435Z,100.00
2022-09-06T20:01:40.745Z,100.00
2022-09-06T20:04:10.708Z,100.00
2022-09-06T20:06:39.608Z,100.00
2022-09-06T20:09:09.004Z,100.00
2022-09-06T20:11:38.757Z,100.00
2022-09-06T20:14:06.096Z,100.00
2022-09-06T20:16:39.378Z,100.00
2022-09-06T20:19:14.784Z,100.00
2022-09-06T20:21:41.798Z,100.00
2022-09-06T20:24:09.060Z,100.00
2022-09-06T20:26:36.125Z,100.00
2022-09-06T20:29:04.938Z,100.00
2022-09-06T20:31:32.153Z,100.00
2022-09-06T20:34:00.373Z,100.00
2022-09-06T20:36:27.368Z,100.00
2022-09-06T20:38:54.213Z,100.00
2022-09-06T20:41:23.922Z,100.00
2022-09-06T20:43:54.629Z,100.00
2022-09-06T20:46:23.590Z,100.00
2022-09-06T20:48:50.426Z,100.00
2022-09-06T20:51:19.488Z,100.00
2022-09-06T20:53:59.749Z,100.00
2022-09-06T20:56:34.839Z,100.00
2022-09-06T20:59:07.225Z,100.00
2022-09-06T21:01:45.722Z,100.00
2022-09-06T21:04:20.726Z,100.00
2022-09-06T21:06:49.718Z,100.00
2022-09-06T21:09:16.986Z,100.00
2022-09-06T21:11:45.485Z,100.00
2022-09-06T21:14:12.712Z,100.00
2022-09-06T21:16:40.795Z,100.00
2022-09-06T21:19:11.344Z,100.00
2022-09-06T21:21:40.721Z,100.00
2022-09-06T21:24:08.321Z,100.00
2022-09-06T21:26:35.751Z,100.00
2022-09-06T21:29:02.302Z,100.00
2022-09-06T21:31:31.400Z,100.00
2022-09-06T21:34:04.888Z,100.00
2022-09-06T21:36:34.910Z,100.00
2022-09-06T21:39:04.293Z,100.00
2022-09-06T21:41:38.510Z,100.00
2022-09-06T21:44:06.785Z,100.00
2022-09-06T21:46:36.265Z,100.00
2022-09-06T21:49:08.883Z,100.00
2022-09-06T21:51:36.023Z,100.00
2022-09-06T21:54:04.785Z,100.00
2022-09-06T21:56:34.202Z,100.00
2022-09-06T21:59:01.051Z,100.00
2022-09-06T22:01:29.805Z,100.00
2022-09-06T22:03:56.520Z,100.00
2022-09-06T22:06:31.278Z,100.00
2022-09-06T22:09:03.136Z,100.00
2022-09-06T22:11:32.585Z,100.00
2022-09-06T22:14:01.182Z,100.00
2022-09-06T22:16:28.887Z,100.00
2022-09-06T22:18:55.724Z,100.00
2022-09-06T22:21:23.080Z,100.00
2022-09-06T22:24:04.234Z,100.00
2022-09-06T22:26:32.539Z,100.00
2022-09-06T22:29:01.237Z,100.00
2022-09-06T22:31:29.583Z,100.00
2022-09-06T22:34:04.512Z,100.00
2022-09-06T22:36:31.738Z,100.00
2022-09-06T22:38:59.323Z,100.00
2022-09-06T22:41:31.018Z,100.00
2022-09-06T22:44:02.239Z,100.00
2022-09-06T22:46:29.007Z,100.00
2022-09-06T22:48:55.704Z,100.00
2022-09-06T22:51:22.751Z,100.00
2022-09-06T22:53:49.338Z,100.00
2022-09-06T22:56:18.000Z,100.00
2022-09-06T22:58:44.723Z,100.00
2022-09-06T23:01:14.119Z,100.00
2022-09-06T23:03:41.833Z,100.00
2022-09-06T23:06:14.434Z,100.00
2022-09-06T23:08:41.640Z,100.00
2022-09-06T23:11:13.668Z,100.00
2022-09-06T23:13:44.084Z,100.00
2022-09-06T23:16:14.503Z,100.00
2022-09-06T23:18:41.516Z,100.00
2022-09-06T23:21:10.733Z,100.00
2022-09-06T23:23:38.424Z,100.00
2022-09-06T23:26:16.435Z,100.00
2022-09-06T23:28:45.569Z,100.00
2022-09-06T23:31:14.805Z,100.00
2022-09-06T23:33:42.075Z,100.00
2022-09-06T23:36:11.491Z,100.00
2022-09-06T23:38:39.884Z,100.00
2022-09-06T23:41:18.108Z,100.00
2022-09-06T23:43:45.752Z,100.00
2022-09-06T23:46:15.975Z,100.00
2022-09-06T23:48:43.510Z,100.00
2022-09-06T23:51:11.164Z,100.00
2022-09-06T23:53:37.759Z,100.00
2022-09-06T23:56:04.885Z,100.00
2022-09-06T23:58:32.190Z,100.00
